Overview Statistics Trail Chart Weather Telemetry Raw packets
 

This is the latest recevied weather packets stored in our database for station/object EA8EE-7. If no packets are shown the sender has not sent any weather packets the latest 10 day(s).

<< 25 26 27 28 >>
Time Temp. Humidity Pressure Rain* Wind** Luminosity Snow
1788209442 34.44° C 30% 1023.6 hPa - - - -
1788208842 34.44° C 30% 1024.2 hPa - - - -
1788208242 34.44° C 30% 1023.5 hPa - - - -
1788207642 34.44° C 30% 1022.2 hPa - - - -
1788207042 34.44° C 30% 1022.3 hPa - - - -
1788206442 34.44° C 30% 1022.9 hPa - - - -
1788205842 35° C 29% 1021.1 hPa - - - -
1788205242 35° C 28% 1020.7 hPa - - - -
1788204642 35° C 28% 1021.4 hPa - - - -
1788203728 35.56° C 28% 1023.7 hPa - - - -
1788203128 36.11° C 28% 1021.5 hPa - - - -
1788202528 36.11° C 28% 1022 hPa - - - -
1788201928 36.11° C 28% 1021.5 hPa - - - -
1788201328 36.67° C 28% 1021.6 hPa - - - -
1788200728 36.67° C 28% 1020.9 hPa - - - -
1788199828 36.67° C 29% 1021 hPa - - - -
1788199088 36.11° C 30% 1022.5 hPa - - - -
1788197803 35° C 32% 1022.1 hPa - - - -
1788197203 34.44° C 33% 1021.6 hPa - - - -
1788196003 32.78° C 39% 1020.2 hPa - - - -
1788195403 33.33° C 37% 1021 hPa - - - -
1788194365 28.89° C 45% 1019.9 hPa - - - -

* Rain since midnight (hover to see other rain measurements)
** Current wind speed in m/s (hover to see current wind gust speed)